Time;durP1;ratioP1;P1;durP2;ratioP2;P2;SDS_P1;SDS_P2;PMS_P1;PMS_P2;Temp;Humidity;BMP_temperature;BMP_pressure;BME280_temperature;BME280_humidity;BME280_pressure;Samples;Min_cycle;Max_cycle;Signal;HPM_P1;HPM_P2
2021/12/23 00:00:20;;;;;;;40.70;17.45;;;;;;;0.09;79.21;101573.50;5032194;28;20466;-42
2021/12/23 00:02:45;;;;;;;43.15;17.77;;;;;;;0.10;79.36;101569.91;5030564;28;20112;-41
2021/12/23 00:05:10;;;;;;;37.92;17.23;;;;;;;0.17;78.96;101560.63;5030415;28;20042;-42
2021/12/23 00:07:36;;;;;;;36.85;18.05;;;;;;;0.12;79.50;101552.13;5012473;28;20026;-42
2021/12/23 00:10:07;;;;;;;37.53;17.73;;;;;;;0.16;79.22;101547.53;5011401;28;20472;-42
2021/12/23 00:12:34;;;;;;;36.95;18.23;;;;;;;0.23;79.10;101538.22;5011194;28;20474;-43
2021/12/23 00:15:00;;;;;;;41.42;18.30;;;;;;;0.14;79.36;101547.59;5011501;28;20037;-41
2021/12/23 00:17:40;;;;;;;47.63;19.45;;;;;;;0.12;79.40;101530.13;5029737;28;20049;-41
2021/12/23 00:25:18;;;;;;;45.22;19.25;;;;;;;0.28;79.27;101498.22;5028753;28;20076;-42
2021/12/23 00:27:43;;;;;;;44.53;20.45;;;;;;;0.18;79.31;101498.78;5017946;28;20077;-41
2021/12/23 00:30:09;;;;;;;49.78;21.85;;;;;;;0.14;79.72;101497.31;5032014;28;20104;-42
2021/12/23 00:32:35;;;;;;;50.30;21.25;;;;;;;0.13;79.72;101484.16;5032121;28;20068;-41
2021/12/23 00:35:00;;;;;;;44.60;20.48;;;;;;;0.16;79.75;101487.47;5031673;28;20026;-42
2021/12/23 00:37:25;;;;;;;48.25;21.83;;;;;;;0.22;79.77;101484.44;5029086;28;20087;-43
2021/12/23 00:39:52;;;;;;;50.78;22.50;;;;;;;0.27;79.73;101480.66;5012245;28;20057;-41
2021/12/23 00:42:17;;;;;;;45.15;22.30;;;;;;;0.29;79.19;101484.03;5012082;28;20022;-41
2021/12/23 00:44:47;;;;;;;43.90;21.25;;;;;;;0.27;79.54;101464.75;5012032;28;20037;-41
2021/12/23 00:47:13;;;;;;;47.83;21.75;;;;;;;0.22;79.44;101447.38;5029750;28;20094;-41
2021/12/23 00:49:38;;;;;;;53.83;22.75;;;;;;;0.13;79.81;101458.56;5012430;28;20030;-41
2021/12/23 00:52:06;;;;;;;51.83;23.52;;;;;;;0.05;80.03;101466.13;5012363;28;20296;-41
2021/12/23 00:54:31;;;;;;;48.42;24.25;;;;;;;0.07;80.22;101458.09;5012453;28;20042;-42
2021/12/23 00:56:57;;;;;;;48.50;23.63;;;;;;;0.06;80.14;101467.84;5015607;28;20160;-41
2021/12/23 00:59:22;;;;;;;54.28;25.75;;;;;;;-0.07;80.31;101462.47;5012265;28;20112;-41
2021/12/23 01:01:48;;;;;;;52.63;24.08;;;;;;;-0.07;80.66;101451.06;5010998;28;20394;-41
2021/12/23 01:04:13;;;;;;;52.15;23.30;;;;;;;-0.11;80.88;101457.47;5012080;28;20389;-41
2021/12/23 01:06:39;;;;;;;52.75;24.92;;;;;;;-0.15;80.59;101454.19;5024278;28;20057;-41
2021/12/23 01:09:04;;;;;;;56.50;26.88;;;;;;;-0.17;80.98;101457.88;5033899;28;20030;-41
2021/12/23 01:11:30;;;;;;;51.88;26.05;;;;;;;-0.22;81.35;101459.00;5036002;28;20031;-41
2021/12/23 01:14:14;;;;;;;56.58;26.92;;;;;;;-0.25;81.67;101445.97;5045042;28;20025;-42
2021/12/23 01:19:25;;;;;;;56.45;27.00;;;;;;;-0.23;81.63;101440.59;5034730;28;20428;-41
2021/12/23 01:21:50;;;;;;;57.95;26.02;;;;;;;-0.20;81.79;101435.13;5034966;28;20025;-41
2021/12/23 01:24:16;;;;;;;58.03;27.17;;;;;;;-0.25;82.22;101438.03;5033441;28;20087;-41
2021/12/23 01:26:41;;;;;;;59.33;28.42;;;;;;;-0.36;82.18;101437.03;5022639;28;20033;-41
2021/12/23 01:29:07;;;;;;;58.60;26.33;;;;;;;-0.43;83.01;101444.50;5014321;28;20499;-42
2021/12/23 01:31:34;;;;;;;64.20;27.30;;;;;;;-0.44;83.41;101442.81;5002145;28;20026;-41
2021/12/23 01:34:00;;;;;;;63.13;28.35;;;;;;;-0.43;83.73;101439.22;5034855;28;20481;-41
2021/12/23 01:36:25;;;;;;;64.25;30.60;;;;;;;-0.42;83.83;101432.13;5024881;28;20088;-41
2021/12/23 01:38:51;;;;;;;68.45;29.75;;;;;;;-0.43;84.17;101423.34;5015016;28;20115;-41
2021/12/23 01:41:17;;;;;;;60.72;29.02;;;;;;;-0.43;84.47;101433.91;5016144;28;20053;-42
2021/12/23 01:43:43;;;;;;;64.25;30.25;;;;;;;-0.44;84.59;101426.94;5034794;28;20021;-41
2021/12/23 01:46:08;;;;;;;64.82;30.20;;;;;;;-0.43;84.93;101423.34;5032203;28;20036;-42
2021/12/23 01:48:34;;;;;;;65.75;31.02;;;;;;;-0.38;84.75;101415.13;5033300;28;20041;-41
2021/12/23 01:51:00;;;;;;;73.20;32.10;;;;;;;-0.37;84.78;101395.66;5033529;28;20392;-41
2021/12/23 01:53:25;;;;;;;72.43;30.20;;;;;;;-0.36;84.55;101390.28;5034483;28;20057;-41
2021/12/23 01:55:51;;;;;;;65.43;31.00;;;;;;;-0.38;84.79;101384.22;5028221;28;20044;-41
2021/12/23 01:58:18;;;;;;;71.05;30.77;;;;;;;-0.35;85.23;101369.97;5014550;28;20026;-41
2021/12/23 02:00:46;;;;;;;66.35;30.25;;;;;;;-0.24;84.70;101370.13;5014556;28;20411;-41
2021/12/23 02:03:12;;;;;;;79.40;34.13;;;;;;;-0.32;84.97;101364.47;5013456;28;20018;-41
2021/12/23 02:05:38;;;;;;;66.68;30.77;;;;;;;-0.38;85.53;101356.94;5017181;28;20055;-41
2021/12/23 02:08:03;;;;;;;73.43;33.50;;;;;;;-0.26;85.39;101354.34;5012201;28;20104;-41
2021/12/23 02:10:29;;;;;;;83.47;35.80;;;;;;;-0.30;85.25;101354.66;5013423;28;20032;-41
2021/12/23 02:12:55;;;;;;;91.32;39.63;;;;;;;-0.38;85.74;101352.50;5014559;28;20083;-41
2021/12/23 02:15:21;;;;;;;103.65;41.97;;;;;;;-0.40;85.99;101345.59;5014781;28;20029;-41
2021/12/23 02:17:47;;;;;;;98.22;42.63;;;;;;;-0.50;86.87;101348.00;5014610;28;20037;-41
2021/12/23 02:20:16;;;;;;;99.93;42.72;;;;;;;-0.48;86.71;101348.75;5028145;28;20119;-42
2021/12/23 02:22:42;;;;;;;97.70;41.72;;;;;;;-0.47;87.12;101345.16;5032760;28;20588;-41
2021/12/23 02:25:10;;;;;;;109.88;45.72;;;;;;;-0.49;87.16;101349.69;5034157;28;20114;-41
2021/12/23 02:27:35;;;;;;;114.43;48.55;;;;;;;-0.53;87.21;101364.03;5016438;28;20041;-41
2021/12/23 02:30:04;;;;;;;120.97;48.22;;;;;;;-0.52;86.92;101355.19;5014280;28;20034;-41
2021/12/23 02:32:29;;;;;;;142.45;54.33;;;;;;;-0.52;87.20;101349.91;5018778;28;20033;-42
2021/12/23 02:34:54;;;;;;;149.43;55.58;;;;;;;-0.58;86.71;101337.06;5033796;28;20025;-42
2021/12/23 07:59:28;;;;;;;94.55;32.33;;;;;;;0.21;90.39;101072.44;5062881;28;20407;-40
2021/12/23 08:01:55;;;;;;;94.57;34.42;;;;;;;0.25;90.24;101069.56;5041974;28;20044;-41
2021/12/23 08:04:20;;;;;;;98.60;33.30;;;;;;;0.31;90.44;101074.44;5039154;28;20051;-41
2021/12/23 08:06:51;;;;;;;93.70;34.15;;;;;;;0.33;89.88;101078.66;5034096;28;20541;-41
2021/12/23 08:09:16;;;;;;;107.80;36.33;;;;;;;0.36;90.06;101061.69;5035781;28;20085;-40
2021/12/23 08:11:42;;;;;;;100.85;34.47;;;;;;;0.40;89.64;101058.72;5043192;28;20105;-41
2021/12/23 08:14:07;;;;;;;87.63;32.72;;;;;;;0.44;89.37;101054.88;5043000;28;20035;-40
2021/12/23 08:16:32;;;;;;;97.60;35.10;;;;;;;0.44;89.45;101048.75;5039061;28;20433;-41
2021/12/23 08:18:58;;;;;;;98.45;35.25;;;;;;;0.50;89.18;101040.38;5034594;28;20449;-40
2021/12/23 08:21:26;;;;;;;96.53;34.33;;;;;;;0.55;89.42;101024.97;5041807;28;20104;-41
2021/12/23 08:23:51;;;;;;;90.45;33.47;;;;;;;0.50;89.21;101027.13;5041392;28;20025;-41
2021/12/23 08:26:17;;;;;;;93.78;34.88;;;;;;;0.54;89.14;101027.75;5029452;28;20037;-42
2021/12/23 08:28:42;;;;;;;99.72;33.65;;;;;;;0.55;89.18;101024.97;5027919;28;20034;-41
2021/12/23 08:31:08;;;;;;;92.70;34.88;;;;;;;0.62;89.11;101009.50;5029646;28;20033;-40
2021/12/23 08:33:33;;;;;;;93.35;34.13;;;;;;;0.66;88.88;101003.03;5031323;28;20029;-40
2021/12/23 08:35:59;;;;;;;95.32;32.83;;;;;;;0.71;88.56;101002.66;5034718;28;20100;-41
2021/12/23 08:38:24;;;;;;;96.65;32.83;;;;;;;0.70;88.82;101006.28;5037471;28;20068;-39
2021/12/23 08:40:50;;;;;;;94.63;34.72;;;;;;;0.65;88.92;100994.19;5029147;28;20440;-39
2021/12/23 08:43:15;;;;;;;90.18;33.30;;;;;;;0.67;89.32;100993.25;5037589;28;20526;-40
2021/12/23 08:45:40;;;;;;;97.85;34.05;;;;;;;0.70;89.14;100979.78;5033514;28;20100;-40
2021/12/23 08:48:06;;;;;;;90.43;33.25;;;;;;;0.77;88.65;100981.84;5040335;28;20160;-40
2021/12/23 08:50:32;;;;;;;88.18;33.38;;;;;;;0.81;88.58;100987.75;5028986;28;20109;-40
2021/12/23 08:52:58;;;;;;;90.30;33.90;;;;;;;0.83;88.23;100975.25;5029998;28;20100;-40
2021/12/23 08:55:27;;;;;;;86.72;32.47;;;;;;;0.92;88.07;100986.94;5032517;28;20385;-40
2021/12/23 08:57:52;;;;;;;99.53;33.50;;;;;;;0.89;88.18;100969.47;5028860;28;20494;-41
2021/12/23 09:00:18;;;;;;;96.55;34.35;;;;;;;0.78;88.31;100966.81;5040297;28;20028;-40
2021/12/23 09:02:46;;;;;;;92.68;34.45;;;;;;;0.80;88.40;100965.72;5040491;28;20086;-40
2021/12/23 09:05:12;;;;;;;90.32;32.03;;;;;;;0.80;88.48;100964.88;5043230;28;20033;-41
2021/12/23 09:07:37;;;;;;;90.35;31.77;;;;;;;0.85;88.89;100960.09;5045722;28;20029;-42
2021/12/23 09:10:05;;;;;;;91.22;32.45;;;;;;;0.80;88.55;100951.66;5025746;28;20029;-41
2021/12/23 09:12:30;;;;;;;86.40;33.37;;;;;;;0.82;88.66;100945.28;5035354;28;20112;-41
2021/12/23 09:14:55;;;;;;;90.45;33.47;;;;;;;0.85;88.70;100946.84;5026580;28;20458;-40
2021/12/23 09:17:21;;;;;;;99.07;33.75;;;;;;;0.92;88.50;100942.75;5028394;28;20108;-40
2021/12/23 09:19:46;;;;;;;95.85;33.83;;;;;;;0.93;88.51;100948.91;5019263;28;20026;-41
2021/12/23 09:22:12;;;;;;;84.70;32.25;;;;;;;1.01;87.92;100947.34;5020570;28;20086;-41
2021/12/23 09:24:40;;;;;;;81.80;30.38;;;;;;;1.03;88.06;100945.44;5034279;28;20029;-41
2021/12/23 09:34:59;;;;;;;85.45;30.40;;;;;;;1.21;86.78;100929.06;5034731;28;20072;-42
2021/12/23 09:37:26;;;;;;;84.35;31.13;;;;;;;1.17;86.86;100927.63;5030988;28;20029;-42
2021/12/23 09:39:56;;;;;;;89.70;32.15;;;;;;;1.16;87.35;100920.63;5027863;28;20458;-42
2021/12/23 09:42:25;;;;;;;86.68;30.88;;;;;;;1.34;86.86;100918.34;5022865;28;20385;-41
2021/12/23 09:44:51;;;;;;;88.15;31.02;;;;;;;1.35;87.13;100915.56;5014389;28;20049;-41
2021/12/23 09:47:17;;;;;;;88.70;32.63;;;;;;;1.31;86.75;100914.97;5024608;28;20482;-41
2021/12/23 09:49:42;;;;;;;79.60;29.92;;;;;;;1.36;87.20;100909.31;5031242;28;20120;-41
2021/12/23 09:52:08;;;;;;;80.25;30.05;;;;;;;1.44;86.17;100906.88;5032103;28;20104;-42
2021/12/23 09:54:36;;;;;;;87.35;32.42;;;;;;;1.56;86.53;100914.84;5002997;28;20516;-42
2021/12/23 09:57:02;;;;;;;;;;;;;;;1.53;85.87;100911.47;5029622;28;20044;-44
2021/12/23 09:59:28;;;;;;;88.68;30.50;;;;;;;1.43;86.44;100914.97;5029085;28;19917;-42
2021/12/23 10:01:54;;;;;;;82.75;29.20;;;;;;;1.49;86.74;100910.00;5031456;28;20060;-41
2021/12/23 10:04:20;;;;;;;86.82;31.45;;;;;;;1.42;86.67;100908.84;5030004;28;20033;-41
2021/12/23 10:06:47;;;;;;;83.32;30.77;;;;;;;1.39;86.92;100914.34;5030931;28;20052;-41
2021/12/23 10:09:16;;;;;;;80.30;32.08;;;;;;;1.38;86.88;100907.38;5014929;28;20042;-42
2021/12/23 10:12:40;;;;;;;77.32;30.15;;;;;;;1.38;86.51;100917.16;5014055;28;20485;-41
2021/12/23 10:31:49;;;;;;;79.45;29.58;;;;;;;1.61;86.51;100905.56;5025202;28;20124;-41
2021/12/23 10:39:39;;;;;;;88.18;30.98;;;;;;;1.65;86.96;100903.50;5033531;28;20041;-42
2021/12/23 10:42:14;;;;;;;89.35;30.80;;;;;;;1.73;87.46;100909.03;5020880;28;20104;-42
2021/12/23 10:44:49;;;;;;;77.95;30.45;;;;;;;1.80;86.95;100902.28;5021122;28;20105;-41
2021/12/23 10:47:31;;;;;;;76.85;29.15;;;;;;;1.88;86.04;100910.44;5032117;28;20045;-42
2021/12/23 10:50:18;;;;;;;73.82;29.40;;;;;;;1.91;85.68;100907.53;5020240;28;20486;-42
2021/12/23 10:52:48;;;;;;;72.25;27.98;;;;;;;2.06;85.62;100908.13;5028225;28;20489;-41
2021/12/23 10:58:07;;;;;;;70.75;27.80;;;;;;;2.09;85.10;100901.72;5013394;28;20049;-42
2021/12/23 11:00:35;;;;;;;74.57;30.20;;;;;;;2.02;84.99;100895.22;5016412;28;20044;-43
2021/12/23 11:03:13;;;;;;;76.70;28.92;;;;;;;2.03;85.28;100880.97;5029343;28;20034;-42
2021/12/23 11:05:47;;;;;;;78.35;28.73;;;;;;;2.04;85.46;100880.84;5029772;28;20486;-42
2021/12/23 11:08:24;;;;;;;69.95;27.90;;;;;;;2.06;85.47;100870.13;5025206;28;20025;-43
2021/12/23 11:27:39;;;;;;;71.22;27.02;;;;;;;2.35;83.72;100823.38;5020675;28;20711;-42
2021/12/23 11:36:05;;;;;;;69.68;27.75;;;;;;;2.50;83.72;100780.53;5012427;28;20057;-42
2021/12/23 11:43:48;;;;;;;68.55;27.98;;;;;;;2.47;83.77;100762.22;5030514;28;20081;-43
2021/12/23 11:46:17;;;;;;;69.70;26.73;;;;;;;2.60;84.29;100758.38;5012553;28;20045;-41
2021/12/23 11:48:45;;;;;;;73.68;27.55;;;;;;;2.67;83.94;100755.19;5013520;28;20076;-41
2021/12/23 11:53:54;;;;;;;68.50;26.70;;;;;;;2.73;83.36;100736.88;5031766;28;20116;-42
2021/12/23 11:56:21;;;;;;;65.07;25.52;;;;;;;2.73;83.20;100736.06;5030938;28;20061;-42
2021/12/23 11:58:48;;;;;;;61.83;26.00;;;;;;;2.73;82.69;100730.75;5026253;28;20084;-42
2021/12/23 12:01:21;;;;;;;65.38;26.35;;;;;;;2.72;83.00;100734.38;5026738;28;20033;-42
2021/12/23 12:03:59;;;;;;;61.85;26.70;;;;;;;2.73;82.79;100731.56;5018854;28;20401;-41
2021/12/23 12:06:45;;;;;;;;;;;;;;;2.71;83.92;100727.38;5023642;28;20378;-42
2021/12/23 12:09:31;;;;;;;69.88;27.55;;;;;;;2.66;83.74;100719.81;5011912;28;19914;-41
2021/12/23 12:11:56;;;;;;;67.97;26.15;;;;;;;2.77;83.59;100721.53;5010995;28;20076;-44
2021/12/23 12:14:42;;;;;;;64.15;26.52;;;;;;;2.81;83.76;100715.78;5017900;28;20041;-42
2021/12/23 12:17:23;;;;;;;64.43;27.48;;;;;;;2.80;83.40;100711.47;5030616;28;20029;-41
2021/12/23 12:19:52;;;;;;;71.57;29.35;;;;;;;2.82;83.36;100724.63;5010617;28;20033;-42
2021/12/23 12:22:55;;;;;;;76.47;28.42;;;;;;;2.85;83.46;100722.53;5030968;28;20033;-41
2021/12/23 12:25:23;;;;;;;67.15;26.38;;;;;;;2.92;83.40;100720.16;5029407;28;20083;-41
2021/12/23 12:28:08;;;;;;;69.65;27.55;;;;;;;2.95;83.04;100716.38;5022301;28;20044;-41
2021/12/23 12:30:54;;;;;;;66.55;26.67;;;;;;;2.99;83.05;100716.00;5029611;28;20547;-42
2021/12/23 12:33:23;;;;;;;61.92;24.83;;;;;;;3.05;83.19;100720.78;5012787;28;20045;-41
2021/12/23 12:35:58;;;;;;;62.10;26.90;;;;;;;3.01;83.08;100713.22;5026132;28;20044;-42
2021/12/23 12:38:28;;;;;;;68.43;27.20;;;;;;;3.02;82.94;100726.34;5024428;28;20069;-42
2021/12/23 12:40:58;;;;;;;64.80;27.20;;;;;;;3.06;82.74;100726.94;5012753;28;20361;-41
2021/12/23 12:43:45;;;;;;;60.78;26.40;;;;;;;3.09;83.08;100726.66;5017122;28;20026;-41
2021/12/23 12:46:12;;;;;;;70.07;27.77;;;;;;;3.12;82.95;100725.53;5022983;28;20081;-43
2021/12/23 12:49:05;;;;;;;64.13;26.70;;;;;;;3.22;82.85;100710.47;5015573;28;20048;-41
2021/12/23 12:51:36;;;;;;;66.97;28.58;;;;;;;3.22;82.72;100716.59;5025631;28;20033;-42
2021/12/23 12:54:07;;;;;;;59.67;27.92;;;;;;;3.32;83.52;100705.13;5034039;28;20037;-42
2021/12/23 12:56:42;;;;;;;63.80;28.08;;;;;;;3.39;82.71;100700.94;5015866;28;20026;-42
2021/12/23 12:59:09;;;;;;;65.50;27.75;;;;;;;3.43;83.13;100689.06;5012381;28;20149;-42
2021/12/23 13:01:41;;;;;;;64.47;27.23;;;;;;;3.51;82.36;100675.91;5031068;28;20104;-42
2021/12/23 13:04:44;;;;;;;60.92;26.60;;;;;;;3.48;82.34;100684.16;5033373;28;20029;-42
2021/12/23 13:07:14;;;;;;;66.38;27.48;;;;;;;3.45;83.70;100695.91;5029563;28;20536;-42
2021/12/23 13:09:58;;;;;;;66.43;27.98;;;;;;;3.44;83.47;100699.53;5015530;28;20147;-42
2021/12/23 13:12:48;;;;;;;63.47;27.25;;;;;;;3.39;83.94;100695.63;5027540;28;20056;-42
2021/12/23 13:15:22;;;;;;;68.43;26.98;;;;;;;3.36;83.63;100696.75;5025511;28;20076;-42
2021/12/23 13:17:52;;;;;;;66.15;29.20;;;;;;;3.37;83.59;100703.75;5014509;28;20030;-42
2021/12/23 13:20:18;;;;;;;72.90;29.70;;;;;;;3.34;84.33;100693.38;5028827;28;20040;-42
2021/12/23 13:22:45;;;;;;;66.90;27.60;;;;;;;3.36;84.45;100685.25;5016817;28;20034;-41
2021/12/23 13:25:11;;;;;;;67.28;28.67;;;;;;;3.29;85.29;100675.19;5037997;28;20444;-41
2021/12/23 13:27:41;;;;;;;69.78;27.80;;;;;;;3.28;85.66;100678.81;5054523;28;20056;-41
2021/12/23 13:30:10;;;;;;;71.13;30.02;;;;;;;3.29;85.29;100676.97;5038701;28;20025;-42
2021/12/23 13:32:36;;;;;;;63.33;28.42;;;;;;;3.33;85.55;100688.22;5027593;28;20029;-42
2021/12/23 13:35:14;;;;;;;65.80;28.80;;;;;;;3.35;85.87;100679.13;5022570;28;20032;-41
2021/12/23 13:37:44;;;;;;;70.22;28.23;;;;;;;3.35;85.82;100671.13;5054028;28;20021;-42
2021/12/23 13:40:10;;;;;;;71.35;28.80;;;;;;;3.40;85.72;100670.72;5026510;28;20116;-42
2021/12/23 13:42:40;;;;;;;68.55;29.25;;;;;;;3.40;86.69;100666.22;5012556;28;20057;-42
2021/12/23 13:45:06;;;;;;;65.35;28.40;;;;;;;3.40;85.95;100655.59;5016166;28;20021;-41
2021/12/23 13:47:33;;;;;;;71.35;29.40;;;;;;;3.43;86.22;100651.81;5018994;28;20496;-42
2021/12/23 13:49:59;;;;;;;69.03;30.10;;;;;;;3.42;86.16;100668.72;5022539;28;20040;-42
2021/12/23 13:52:25;;;;;;;72.35;30.98;;;;;;;3.45;86.79;100663.13;5029067;28;20457;-41
2021/12/23 13:54:54;;;;;;;75.55;32.83;;;;;;;3.44;86.58;100656.13;5021954;28;20082;-43
2021/12/23 13:57:21;;;;;;;73.95;31.55;;;;;;;3.43;86.56;100659.78;5032685;28;20059;-40
2021/12/23 13:59:48;;;;;;;74.00;30.70;;;;;;;3.44;86.45;100666.78;5020788;28;20030;-42
2021/12/23 14:02:14;;;;;;;72.88;31.90;;;;;;;3.46;86.79;100664.81;5013007;28;20080;-42
2021/12/23 14:04:43;;;;;;;71.18;31.25;;;;;;;3.50;87.08;100667.06;5014049;28;20103;-41
2021/12/23 14:07:25;;;;;;;78.80;31.60;;;;;;;3.46;86.94;100670.16;5014144;28;20089;-41
2021/12/23 14:09:55;;;;;;;75.30;32.58;;;;;;;3.45;87.02;100668.44;5027645;28;20029;-41
2021/12/23 14:12:40;;;;;;;71.00;30.88;;;;;;;3.46;87.23;100659.50;5020106;28;20036;-42
2021/12/23 14:15:07;;;;;;;79.38;31.45;;;;;;;3.48;87.53;100660.22;5025246;28;20046;-43
2021/12/23 14:17:38;;;;;;;73.20;30.75;;;;;;;3.50;86.82;100663.56;5014142;28;20026;-42
2021/12/23 14:23:17;;;;;;;80.03;33.75;;;;;;;3.56;87.70;100659.50;5014060;28;20519;-42
2021/12/23 14:25:42;;;;;;;87.38;33.47;;;;;;;3.59;88.20;100657.41;5013522;28;20034;-42
2021/12/23 14:28:09;;;;;;;74.72;33.10;;;;;;;3.61;87.86;100651.94;5013680;28;20359;-41
2021/12/23 14:30:40;;;;;;;75.40;33.10;;;;;;;3.64;88.06;100643.69;5012590;28;20112;-42
2021/12/23 14:33:11;;;;;;;77.03;32.60;;;;;;;3.68;88.25;100631.75;5013953;28;20061;-42
2021/12/23 14:35:36;;;;;;;84.43;33.10;;;;;;;3.72;88.07;100633.16;5014283;28;20434;-42
2021/12/23 14:38:02;;;;;;;81.57;32.97;;;;;;;3.73;88.64;100640.97;5013658;28;20026;-42
2021/12/23 14:40:27;;;;;;;83.95;34.63;;;;;;;3.77;88.61;100646.88;5012618;28;20025;-42
2021/12/23 14:43:02;;;;;;;85.13;33.63;;;;;;;3.80;88.47;100645.75;5013674;28;20394;-42
2021/12/23 14:45:28;;;;;;;83.53;35.03;;;;;;;3.82;89.25;100649.09;5012263;28;20030;-42
2021/12/23 14:48:00;;;;;;;92.15;35.78;;;;;;;3.83;89.33;100650.78;5013314;28;20117;-42
2021/12/23 14:50:26;;;;;;;82.30;33.88;;;;;;;3.84;89.07;100652.47;5013547;28;20026;-43
2021/12/23 14:52:56;;;;;;;93.07;35.50;;;;;;;3.86;89.43;100658.47;5013459;28;20106;-41
2021/12/23 14:55:23;;;;;;;96.57;35.58;;;;;;;3.88;89.81;100654.69;5013593;28;20022;-41
2021/12/23 14:58:01;;;;;;;95.32;36.53;;;;;;;3.90;89.59;100655.41;5013106;28;20410;-42
2021/12/23 15:00:34;;;;;;;95.20;36.05;;;;;;;3.95;90.18;100652.31;5011737;28;20368;-43
2021/12/23 15:03:25;;;;;;;107.60;39.90;;;;;;;4.00;91.57;100660.69;5013196;28;20156;-42
2021/12/23 15:05:51;;;;;;;113.50;40.40;;;;;;;4.03;91.73;100663.09;5012038;28;20029;-42
2021/12/23 15:08:20;;;;;;;100.30;36.88;;;;;;;4.04;91.56;100654.09;5012081;28;20121;-42
2021/12/23 15:10:51;;;;;;;104.80;40.15;;;;;;;4.05;91.84;100655.75;5012974;28;20109;-42
2021/12/23 15:13:25;;;;;;;116.65;41.95;;;;;;;4.05;92.25;100666.41;5012068;28;20030;-42
2021/12/23 15:16:03;;;;;;;102.22;38.22;;;;;;;4.06;92.41;100667.28;5012421;28;20025;-42
2021/12/23 15:18:35;;;;;;;;;;;;;;;4.09;92.67;100659.00;5012875;28;20034;-42
2021/12/23 15:21:04;;;;;;;118.38;41.42;;;;;;;4.10;92.85;100658.84;5012474;28;20035;-42
2021/12/23 15:23:38;;;;;;;121.90;42.22;;;;;;;4.10;93.42;100652.69;5012029;28;20113;-42
2021/12/23 15:26:19;;;;;;;120.93;40.78;;;;;;;4.10;94.18;100661.50;5012193;28;20033;-41
2021/12/23 15:29:13;;;;;;;118.70;40.45;;;;;;;4.12;94.11;100648.88;5011785;28;20083;-42
2021/12/23 15:31:40;;;;;;;129.15;43.80;;;;;;;4.15;94.01;100645.09;5011784;28;20028;-42
2021/12/23 15:34:09;;;;;;;134.65;43.95;;;;;;;4.15;94.54;100653.09;5015426;28;20489;-42
2021/12/23 15:36:39;;;;;;;125.72;44.08;;;;;;;4.14;94.43;100654.09;5027219;28;20076;-41
2021/12/23 15:39:25;;;;;;;144.77;46.65;;;;;;;4.13;95.55;100653.25;5025832;28;20554;-41
2021/12/23 15:41:51;;;;;;;140.20;45.55;;;;;;;4.13;95.54;100658.56;5020564;28;20103;-43
2021/12/23 15:44:17;;;;;;;146.00;46.30;;;;;;;4.12;95.57;100654.22;5012172;28;20045;-42
2021/12/23 15:46:42;;;;;;;145.80;46.50;;;;;;;4.11;95.69;100641.91;5011788;28;20133;-41
2021/12/23 15:49:08;;;;;;;160.02;50.28;;;;;;;4.13;96.19;100647.06;5027615;28;20255;-41
2021/12/23 15:51:35;;;;;;;155.55;48.65;;;;;;;4.11;96.21;100652.53;5030027;28;20025;-42
2021/12/23 15:54:01;;;;;;;166.13;50.20;;;;;;;4.11;96.59;100649.88;5031698;28;20029;-41
2021/12/23 15:56:26;;;;;;;168.82;51.90;;;;;;;4.12;96.56;100640.91;5020835;28;20119;-42
2021/12/23 15:58:52;;;;;;;158.77;46.28;;;;;;;4.13;96.69;100631.94;5012092;28;20078;-42
2021/12/23 16:01:17;;;;;;;158.60;48.90;;;;;;;4.15;97.31;100629.13;5011510;28;20030;-42
2021/12/23 16:03:44;;;;;;;146.73;46.67;;;;;;;4.17;97.01;100617.31;5011553;28;20497;-42
2021/12/23 16:08:53;;;;;;;160.05;47.60;;;;;;;4.20;96.96;100615.38;5046200;28;20323;-41
2021/12/23 16:11:19;;;;;;;158.63;47.33;;;;;;;4.18;97.27;100616.34;5015306;28;20419;-42
2021/12/23 16:13:44;;;;;;;159.75;48.50;;;;;;;4.15;97.52;100616.63;5027001;28;20397;-41
2021/12/23 16:16:10;;;;;;;156.50;48.30;;;;;;;4.15;97.47;100624.63;5028515;28;20025;-43
2021/12/23 16:18:35;;;;;;;161.65;48.45;;;;;;;4.12;97.53;100616.94;5028157;28;20029;-44
2021/12/23 16:21:01;;;;;;;164.98;48.35;;;;;;;4.12;97.92;100611.59;5031344;28;20053;-40
2021/12/23 16:23:26;;;;;;;160.88;47.80;;;;;;;4.13;97.56;100607.09;5030854;28;20053;-40
2021/12/23 16:25:51;;;;;;;158.85;48.67;;;;;;;4.11;97.78;100596.63;5016088;28;20428;-42
2021/12/23 16:28:20;;;;;;;181.07;49.70;;;;;;;4.13;98.22;100594.66;5018919;28;20504;-42
2021/12/23 16:30:48;;;;;;;172.57;49.00;;;;;;;4.10;98.71;100594.91;5018685;28;20088;-41
2021/12/23 16:33:13;;;;;;;180.30;48.83;;;;;;;4.12;98.35;100602.78;5040240;28;20037;-41
2021/12/23 16:35:41;;;;;;;181.35;50.97;;;;;;;4.10;98.51;100594.91;5026730;28;20109;-42
2021/12/23 16:38:07;;;;;;;179.45;48.35;;;;;;;4.10;98.87;100594.09;5029862;28;20419;-42
2021/12/23 16:40:36;;;;;;;168.20;48.40;;;;;;;4.10;99.67;100594.91;5012749;28;20075;-42
2021/12/23 16:43:02;;;;;;;180.15;48.60;;;;;;;4.11;99.72;100596.63;5012061;28;20037;-41
2021/12/23 16:45:29;;;;;;;168.88;49.35;;;;;;;4.11;99.07;100590.47;5012157;28;20160;-42
2021/12/23 16:47:54;;;;;;;175.85;46.53;;;;;;;4.09;99.26;100582.59;5026710;28;20025;-42
2021/12/23 16:50:20;;;;;;;163.98;45.95;;;;;;;4.08;99.50;100591.59;5003653;28;20037;-42
2021/12/23 16:52:48;;;;;;;177.38;47.13;;;;;;;4.09;99.10;100598.56;5030019;28;20385;-43
2021/12/23 16:55:32;;;;;;;163.88;46.03;;;;;;;4.10;99.48;100581.59;5030187;28;20598;-42
2021/12/23 16:57:59;;;;;;;159.60;47.05;;;;;;;4.10;99.70;100573.63;5025912;28;20065;-41
2021/12/23 17:00:24;;;;;;;160.32;45.70;;;;;;;4.09;99.37;100579.09;5031858;28;20049;-42
2021/12/23 17:02:52;;;;;;;160.10;46.03;;;;;;;4.07;99.45;100584.56;5024465;28;20048;-41
2021/12/23 17:05:20;;;;;;;174.77;49.83;;;;;;;4.08;99.64;100574.75;5010738;28;20029;-41
2021/12/23 17:07:46;;;;;;;156.98;47.70;;;;;;;4.08;99.40;100575.59;5014652;28;20422;-43
2021/12/23 17:10:14;;;;;;;143.82;44.15;;;;;;;4.11;99.13;100572.66;5024244;28;20527;-42
2021/12/23 17:12:39;;;;;;;144.57;45.47;;;;;;;4.11;99.10;100580.63;5026484;28;20480;-41
2021/12/23 17:15:06;;;;;;;131.43;42.72;;;;;;;4.11;98.50;100569.16;5031363;28;20078;-41
2021/12/23 17:17:34;;;;;;;136.25;43.22;;;;;;;4.10;98.49;100573.63;5016838;28;20094;-41
2021/12/23 17:20:02;;;;;;;126.82;41.65;;;;;;;4.12;98.22;100561.00;5011691;28;20026;-39
2021/12/23 17:22:31;;;;;;;;;;;;;;;4.10;98.08;100578.09;5011935;28;20506;-41
2021/12/23 17:24:57;;;;;;;122.70;41.10;;;;;;;4.09;97.70;100566.63;5017483;28;19924;-41
2021/12/23 17:27:24;;;;;;;116.65;42.65;;;;;;;4.08;97.44;100567.63;5015912;28;20386;-41
2021/12/23 17:29:51;;;;;;;122.28;41.53;;;;;;;4.09;97.94;100565.78;5012017;28;20060;-42
2021/12/23 17:32:17;;;;;;;113.07;39.63;;;;;;;4.09;97.65;100563.97;5012661;28;20030;-41
2021/12/23 17:34:42;;;;;;;127.43;41.80;;;;;;;4.09;97.48;100553.31;4996970;28;20041;-41
2021/12/23 17:37:10;;;;;;;122.15;41.55;;;;;;;4.07;97.69;100552.59;5018394;28;20041;-42
2021/12/23 17:39:35;;;;;;;118.78;40.13;;;;;;;4.10;97.64;100551.47;5024644;28;20048;-41
2021/12/23 17:42:02;;;;;;;118.55;41.47;;;;;;;4.12;97.60;100554.84;5012540;28;20436;-42
2021/12/23 17:44:28;;;;;;;114.50;41.58;;;;;;;4.09;97.69;100545.31;5011605;28;20407;-43
2021/12/23 17:46:53;;;;;;;117.20;41.90;;;;;;;4.11;97.33;100546.00;5012265;28;20022;-41
2021/12/23 17:49:19;;;;;;;120.13;42.78;;;;;;;4.10;97.78;100536.31;5009864;28;20026;-45
2021/12/23 17:51:45;;;;;;;113.95;42.40;;;;;;;4.11;97.09;100535.38;5010890;28;20033;-41
2021/12/23 17:54:10;;;;;;;138.88;45.45;;;;;;;4.10;97.13;100552.31;5020744;28;20334;-43
2021/12/23 17:56:39;;;;;;;125.78;44.83;;;;;;;4.07;97.08;100533.97;5029145;28;20057;-41
2021/12/23 17:59:05;;;;;;;127.32;44.75;;;;;;;4.06;97.86;100528.81;5011964;28;20053;-41
2021/12/23 18:01:31;;;;;;;139.90;46.15;;;;;;;4.08;98.61;100538.31;5025993;28;20061;-42